sensor_id;sensor_type;location;lat;lon;timestamp;temperature;humidity
728;DHT22;347;48.780;9.158;2022-07-23T00:00:35;25.80;19.60
728;DHT22;347;48.780;9.158;2022-07-23T00:03:01;25.70;19.90
728;DHT22;347;48.780;9.158;2022-07-23T00:05:26;25.60;20.10
728;DHT22;347;48.780;9.158;2022-07-23T00:07:52;25.50;20.40
728;DHT22;347;48.780;9.158;2022-07-23T00:10:18;25.50;20.70
728;DHT22;347;48.780;9.158;2022-07-23T00:12:44;25.50;20.90
728;DHT22;347;48.780;9.158;2022-07-23T00:15:10;25.40;21.00
728;DHT22;347;48.780;9.158;2022-07-23T00:17:35;25.30;20.90
728;DHT22;347;48.780;9.158;2022-07-23T00:20:01;25.30;21.00
728;DHT22;347;48.780;9.158;2022-07-23T00:22:27;25.30;21.00
728;DHT22;347;48.780;9.158;2022-07-23T00:24:55;25.30;21.30
728;DHT22;347;48.780;9.158;2022-07-23T00:27:21;25.20;21.40
728;DHT22;347;48.780;9.158;2022-07-23T00:29:46;25.10;21.60
728;DHT22;347;48.780;9.158;2022-07-23T00:32:12;25.20;21.60
728;DHT22;347;48.780;9.158;2022-07-23T00:34:38;25.10;21.80
728;DHT22;347;48.780;9.158;2022-07-23T00:37:03;25.10;22.30
728;DHT22;347;48.780;9.158;2022-07-23T00:39:29;25.00;22.20
728;DHT22;347;48.780;9.158;2022-07-23T00:41:55;24.90;22.90
728;DHT22;347;48.780;9.158;2022-07-23T00:44:26;24.90;25.00
728;DHT22;347;48.780;9.158;2022-07-23T00:46:57;24.60;25.60
728;DHT22;347;48.780;9.158;2022-07-23T00:49:25;24.50;28.00
728;DHT22;347;48.780;9.158;2022-07-23T00:51:51;24.40;26.80
728;DHT22;347;48.780;9.158;2022-07-23T00:54:18;24.40;27.10
728;DHT22;347;48.780;9.158;2022-07-23T00:56:45;24.40;27.50
728;DHT22;347;48.780;9.158;2022-07-23T00:59:12;24.30;28.70
728;DHT22;347;48.780;9.158;2022-07-23T01:01:39;24.20;27.50
728;DHT22;347;48.780;9.158;2022-07-23T01:04:05;24.10;27.60
728;DHT22;347;48.780;9.158;2022-07-23T01:06:34;24.00;27.60
728;DHT22;347;48.780;9.158;2022-07-23T01:09:01;24.00;28.00
728;DHT22;347;48.780;9.158;2022-07-23T01:11:27;24.10;27.10
728;DHT22;347;48.780;9.158;2022-07-23T01:13:53;24.10;27.10
728;DHT22;347;48.780;9.158;2022-07-23T01:16:19;24.10;27.00
728;DHT22;347;48.780;9.158;2022-07-23T01:18:44;24.10;26.60
728;DHT22;347;48.780;9.158;2022-07-23T01:21:12;24.10;26.50
728;DHT22;347;48.780;9.158;2022-07-23T01:23:41;24.10;26.60
728;DHT22;347;48.780;9.158;2022-07-23T01:26:07;24.00;26.40
728;DHT22;347;48.780;9.158;2022-07-23T01:28:33;24.00;26.70
728;DHT22;347;48.780;9.158;2022-07-23T01:31:07;23.90;27.00
728;DHT22;347;48.780;9.158;2022-07-23T01:33:33;23.90;27.30
728;DHT22;347;48.780;9.158;2022-07-23T01:35:58;24.00;27.40
728;DHT22;347;48.780;9.158;2022-07-23T01:38:24;23.90;27.20
728;DHT22;347;48.780;9.158;2022-07-23T01:40:50;23.90;27.00
728;DHT22;347;48.780;9.158;2022-07-23T01:43:16;24.00;27.10
728;DHT22;347;48.780;9.158;2022-07-23T01:45:41;24.00;27.10
728;DHT22;347;48.780;9.158;2022-07-23T01:48:09;24.00;27.30
728;DHT22;347;48.780;9.158;2022-07-23T01:50:35;23.90;27.40
728;DHT22;347;48.780;9.158;2022-07-23T01:53:01;23.90;27.40
728;DHT22;347;48.780;9.158;2022-07-23T01:55:27;23.90;27.10
728;DHT22;347;48.780;9.158;2022-07-23T01:57:52;23.90;27.20
728;DHT22;347;48.780;9.158;2022-07-23T02:00:18;24.00;26.90
728;DHT22;347;48.780;9.158;2022-07-23T02:02:44;23.90;26.90
728;DHT22;347;48.780;9.158;2022-07-23T02:05:10;23.80;27.30
728;DHT22;347;48.780;9.158;2022-07-23T02:07:36;23.90;27.20
728;DHT22;347;48.780;9.158;2022-07-23T02:10:02;24.00;27.50
728;DHT22;347;48.780;9.158;2022-07-23T02:12:28;23.90;27.40
728;DHT22;347;48.780;9.158;2022-07-23T02:14:54;24.00;27.20
728;DHT22;347;48.780;9.158;2022-07-23T02:17:19;24.20;26.80
728;DHT22;347;48.780;9.158;2022-07-23T02:19:45;24.30;26.50
728;DHT22;347;48.780;9.158;2022-07-23T02:22:11;24.30;26.30
728;DHT22;347;48.780;9.158;2022-07-23T02:24:37;24.20;26.30
728;DHT22;347;48.780;9.158;2022-07-23T02:27:03;24.00;26.50
728;DHT22;347;48.780;9.158;2022-07-23T02:29:28;23.70;27.30
728;DHT22;347;48.780;9.158;2022-07-23T02:31:54;23.70;27.60
728;DHT22;347;48.780;9.158;2022-07-23T02:34:20;23.70;27.90
728;DHT22;347;48.780;9.158;2022-07-23T02:36:46;23.70;28.10
728;DHT22;347;48.780;9.158;2022-07-23T02:39:11;23.60;28.40
728;DHT22;347;48.780;9.158;2022-07-23T02:41:37;23.50;28.50
728;DHT22;347;48.780;9.158;2022-07-23T02:44:03;23.50;28.70
728;DHT22;347;48.780;9.158;2022-07-23T02:46:29;23.50;28.60
728;DHT22;347;48.780;9.158;2022-07-23T02:48:54;23.50;28.70
728;DHT22;347;48.780;9.158;2022-07-23T02:51:20;23.50;28.30
728;DHT22;347;48.780;9.158;2022-07-23T02:53:46;23.50;28.40
728;DHT22;347;48.780;9.158;2022-07-23T02:56:11;23.50;28.40
728;DHT22;347;48.780;9.158;2022-07-23T02:58:37;23.40;28.90
728;DHT22;347;48.780;9.158;2022-07-23T03:01:03;23.30;29.10
728;DHT22;347;48.780;9.158;2022-07-23T03:03:29;23.30;29.40
728;DHT22;347;48.780;9.158;2022-07-23T03:05:54;23.10;29.60
728;DHT22;347;48.780;9.158;2022-07-23T03:08:20;23.10;29.80
728;DHT22;347;48.780;9.158;2022-07-23T03:10:46;23.20;29.90
728;DHT22;347;48.780;9.158;2022-07-23T03:13:11;23.20;29.80
728;DHT22;347;48.780;9.158;2022-07-23T03:15:37;23.10;29.90
728;DHT22;347;48.780;9.158;2022-07-23T03:18:03;23.10;30.00
728;DHT22;347;48.780;9.158;2022-07-23T03:20:29;23.00;30.30
728;DHT22;347;48.780;9.158;2022-07-23T03:22:54;23.10;30.20
728;DHT22;347;48.780;9.158;2022-07-23T03:25:20;23.00;30.50
728;DHT22;347;48.780;9.158;2022-07-23T03:27:46;23.00;30.30
728;DHT22;347;48.780;9.158;2022-07-23T03:30:12;23.00;30.30
728;DHT22;347;48.780;9.158;2022-07-23T03:32:37;23.00;30.00
728;DHT22;347;48.780;9.158;2022-07-23T03:35:04;23.20;29.80
728;DHT22;347;48.780;9.158;2022-07-23T03:37:29;23.30;29.40
728;DHT22;347;48.780;9.158;2022-07-23T03:39:55;23.40;29.40
728;DHT22;347;48.780;9.158;2022-07-23T03:42:21;23.40;29.20
728;DHT22;347;48.780;9.158;2022-07-23T03:44:47;23.40;29.10
728;DHT22;347;48.780;9.158;2022-07-23T03:47:15;23.50;28.80
728;DHT22;347;48.780;9.158;2022-07-23T03:49:42;23.70;28.30
728;DHT22;347;48.780;9.158;2022-07-23T03:52:08;23.60;27.90
728;DHT22;347;48.780;9.158;2022-07-23T03:54:34;23.50;28.40
728;DHT22;347;48.780;9.158;2022-07-23T03:56:59;23.50;28.60
728;DHT22;347;48.780;9.158;2022-07-23T03:59:25;23.40;28.90
728;DHT22;347;48.780;9.158;2022-07-23T04:01:51;23.60;28.50
728;DHT22;347;48.780;9.158;2022-07-23T04:04:16;23.80;28.40
728;DHT22;347;48.780;9.158;2022-07-23T04:06:42;23.60;28.30
728;DHT22;347;48.780;9.158;2022-07-23T04:09:17;23.50;28.30
728;DHT22;347;48.780;9.158;2022-07-23T04:11:45;23.50;28.40
728;DHT22;347;48.780;9.158;2022-07-23T04:14:14;23.40;28.30
728;DHT22;347;48.780;9.158;2022-07-23T04:16:40;23.40;28.50
728;DHT22;347;48.780;9.158;2022-07-23T04:19:05;23.30;28.90
728;DHT22;347;48.780;9.158;2022-07-23T04:21:31;23.40;28.60
728;DHT22;347;48.780;9.158;2022-07-23T04:23:57;23.40;28.50
728;DHT22;347;48.780;9.158;2022-07-23T04:26:22;23.30;28.80
728;DHT22;347;48.780;9.158;2022-07-23T04:28:51;23.30;29.00
728;DHT22;347;48.780;9.158;2022-07-23T04:31:17;23.30;29.00
728;DHT22;347;48.780;9.158;2022-07-23T04:33:42;23.40;29.10
728;DHT22;347;48.780;9.158;2022-07-23T04:36:08;23.30;29.50
728;DHT22;347;48.780;9.158;2022-07-23T04:38:34;23.10;29.90
728;DHT22;347;48.780;9.158;2022-07-23T04:41:00;23.00;29.80
728;DHT22;347;48.780;9.158;2022-07-23T04:43:26;23.10;29.80
728;DHT22;347;48.780;9.158;2022-07-23T04:45:52;23.00;30.00
728;DHT22;347;48.780;9.158;2022-07-23T04:48:18;23.30;29.50
728;DHT22;347;48.780;9.158;2022-07-23T04:50:43;23.40;29.20
728;DHT22;347;48.780;9.158;2022-07-23T04:53:09;23.50;28.80
728;DHT22;347;48.780;9.158;2022-07-23T04:55:35;23.50;28.70
728;DHT22;347;48.780;9.158;2022-07-23T04:58:01;23.30;29.10
728;DHT22;347;48.780;9.158;2022-07-23T05:00:26;23.30;29.40
728;DHT22;347;48.780;9.158;2022-07-23T05:02:52;23.20;29.40
728;DHT22;347;48.780;9.158;2022-07-23T05:05:18;23.30;29.10
728;DHT22;347;48.780;9.158;2022-07-23T05:07:44;23.30;29.20
728;DHT22;347;48.780;9.158;2022-07-23T05:10:09;23.40;29.10
728;DHT22;347;48.780;9.158;2022-07-23T05:12:35;23.20;29.30
728;DHT22;347;48.780;9.158;2022-07-23T05:15:01;23.30;29.40
728;DHT22;347;48.780;9.158;2022-07-23T05:17:27;23.40;29.00
728;DHT22;347;48.780;9.158;2022-07-23T05:19:52;23.50;28.80
728;DHT22;347;48.780;9.158;2022-07-23T05:22:18;23.70;28.60
728;DHT22;347;48.780;9.158;2022-07-23T05:24:47;23.80;28.20
728;DHT22;347;48.780;9.158;2022-07-23T05:27:21;23.90;27.90
728;DHT22;347;48.780;9.158;2022-07-23T05:29:47;23.90;27.90
728;DHT22;347;48.780;9.158;2022-07-23T05:32:13;23.70;28.30
728;DHT22;347;48.780;9.158;2022-07-23T05:34:38;23.70;28.30
728;DHT22;347;48.780;9.158;2022-07-23T05:37:05;23.80;28.30
728;DHT22;347;48.780;9.158;2022-07-23T05:39:30;23.80;28.40
728;DHT22;347;48.780;9.158;2022-07-23T05:41:56;23.80;28.00
728;DHT22;347;48.780;9.158;2022-07-23T05:44:22;23.80;28.00
728;DHT22;347;48.780;9.158;2022-07-23T05:46:48;23.70;28.20
728;DHT22;347;48.780;9.158;2022-07-23T05:49:14;23.80;28.10
728;DHT22;347;48.780;9.158;2022-07-23T05:51:39;23.90;27.90
728;DHT22;347;48.780;9.158;2022-07-23T05:54:05;24.10;27.90
728;DHT22;347;48.780;9.158;2022-07-23T05:56:31;24.10;27.50
728;DHT22;347;48.780;9.158;2022-07-23T05:58:56;24.10;27.90
728;DHT22;347;48.780;9.158;2022-07-23T06:01:22;24.00;27.50
728;DHT22;347;48.780;9.158;2022-07-23T06:03:48;24.10;27.40
728;DHT22;347;48.780;9.158;2022-07-23T06:06:14;24.00;27.30
728;DHT22;347;48.780;9.158;2022-07-23T06:08:40;23.90;27.80
728;DHT22;347;48.780;9.158;2022-07-23T06:11:08;23.80;28.10
728;DHT22;347;48.780;9.158;2022-07-23T06:13:34;23.90;28.00
728;DHT22;347;48.780;9.158;2022-07-23T06:16:09;23.80;27.70
728;DHT22;347;48.780;9.158;2022-07-23T06:18:35;23.90;27.60
728;DHT22;347;48.780;9.158;2022-07-23T06:21:00;24.00;26.80
728;DHT22;347;48.780;9.158;2022-07-23T06:23:26;24.10;26.90
728;DHT22;347;48.780;9.158;2022-07-23T06:25:52;24.20;27.00
728;DHT22;347;48.780;9.158;2022-07-23T06:28:18;24.20;27.00
728;DHT22;347;48.780;9.158;2022-07-23T06:30:44;24.20;27.00
728;DHT22;347;48.780;9.158;2022-07-23T06:33:09;24.30;26.80
728;DHT22;347;48.780;9.158;2022-07-23T06:35:37;24.30;26.70
728;DHT22;347;48.780;9.158;2022-07-23T06:38:02;24.30;26.30
728;DHT22;347;48.780;9.158;2022-07-23T06:40:28;24.30;26.70
728;DHT22;347;48.780;9.158;2022-07-23T06:42:54;24.40;27.10
728;DHT22;347;48.780;9.158;2022-07-23T06:45:23;24.40;26.70
728;DHT22;347;48.780;9.158;2022-07-23T06:47:48;24.40;26.70
728;DHT22;347;48.780;9.158;2022-07-23T06:53:12;24.50;26.50
728;DHT22;347;48.780;9.158;2022-07-23T06:55:58;24.30;26.40
728;DHT22;347;48.780;9.158;2022-07-23T06:58:24;24.40;26.20
728;DHT22;347;48.780;9.158;2022-07-23T07:00:50;24.40;25.80
728;DHT22;347;48.780;9.158;2022-07-23T07:03:19;24.40;25.90
728;DHT22;347;48.780;9.158;2022-07-23T07:05:45;24.40;25.70
728;DHT22;347;48.780;9.158;2022-07-23T07:08:11;24.30;25.30
728;DHT22;347;48.780;9.158;2022-07-23T07:10:37;24.30;25.70
728;DHT22;347;48.780;9.158;2022-07-23T07:13:05;24.30;25.70
728;DHT22;347;48.780;9.158;2022-07-23T07:15:31;24.30;25.90
728;DHT22;347;48.780;9.158;2022-07-23T07:17:59;24.20;25.70
728;DHT22;347;48.780;9.158;2022-07-23T07:20:28;24.10;25.60
728;DHT22;347;48.780;9.158;2022-07-23T07:23:00;24.00;26.40
728;DHT22;347;48.780;9.158;2022-07-23T07:25:29;23.90;26.60
728;DHT22;347;48.780;9.158;2022-07-23T07:28:01;23.90;26.80
728;DHT22;347;48.780;9.158;2022-07-23T07:30:30;23.90;27.20
728;DHT22;347;48.780;9.158;2022-07-23T07:32:59;23.90;27.90
728;DHT22;347;48.780;9.158;2022-07-23T07:35:25;23.90;28.10
728;DHT22;347;48.780;9.158;2022-07-23T07:37:51;23.90;28.50
728;DHT22;347;48.780;9.158;2022-07-23T07:40:17;23.90;29.00
728;DHT22;347;48.780;9.158;2022-07-23T07:42:51;23.80;29.90
728;DHT22;347;48.780;9.158;2022-07-23T07:45:19;23.70;30.70
728;DHT22;347;48.780;9.158;2022-07-23T07:47:45;23.50;30.80
728;DHT22;347;48.780;9.158;2022-07-23T07:50:19;23.50;31.30
728;DHT22;347;48.780;9.158;2022-07-23T07:52:57;23.40;30.30
728;DHT22;347;48.780;9.158;2022-07-23T07:55:22;23.40;30.80
728;DHT22;347;48.780;9.158;2022-07-23T07:57:51;23.40;30.60
728;DHT22;347;48.780;9.158;2022-07-23T08:00:17;23.40;31.10
728;DHT22;347;48.780;9.158;2022-07-23T08:02:50;23.40;30.30
728;DHT22;347;48.780;9.158;2022-07-23T08:05:25;23.40;30.10
728;DHT22;347;48.780;9.158;2022-07-23T08:07:52;23.50;30.00
728;DHT22;347;48.780;9.158;2022-07-23T08:10:35;23.50;30.00
728;DHT22;347;48.780;9.158;2022-07-23T08:13:01;23.60;29.90
728;DHT22;347;48.780;9.158;2022-07-23T08:15:29;23.60;29.60
728;DHT22;347;48.780;9.158;2022-07-23T08:17:55;23.70;29.50
728;DHT22;347;48.780;9.158;2022-07-23T08:20:22;23.50;30.00
728;DHT22;347;48.780;9.158;2022-07-23T08:22:53;23.60;28.90
728;DHT22;347;48.780;9.158;2022-07-23T08:25:28;23.60;29.00
728;DHT22;347;48.780;9.158;2022-07-23T08:27:55;23.60;28.80
728;DHT22;347;48.780;9.158;2022-07-23T08:30:21;23.60;28.70
728;DHT22;347;48.780;9.158;2022-07-23T08:32:57;23.70;28.40
728;DHT22;347;48.780;9.158;2022-07-23T08:35:34;23.60;28.30
728;DHT22;347;48.780;9.158;2022-07-23T08:38:02;23.60;28.10
728;DHT22;347;48.780;9.158;2022-07-23T08:40:31;23.40;28.70
728;DHT22;347;48.780;9.158;2022-07-23T08:42:57;23.30;28.90
728;DHT22;347;48.780;9.158;2022-07-23T08:45:24;23.40;28.50
728;DHT22;347;48.780;9.158;2022-07-23T08:47:55;23.60;28.30
728;DHT22;347;48.780;9.158;2022-07-23T08:50:22;23.80;28.20
728;DHT22;347;48.780;9.158;2022-07-23T08:52:49;23.80;27.60
728;DHT22;347;48.780;9.158;2022-07-23T08:55:21;23.80;26.60
728;DHT22;347;48.780;9.158;2022-07-23T08:57:48;23.70;26.90
728;DHT22;347;48.780;9.158;2022-07-23T09:00:15;23.70;26.70
728;DHT22;347;48.780;9.158;2022-07-23T09:02:42;23.70;26.60
728;DHT22;347;48.780;9.158;2022-07-23T09:05:13;23.80;26.80
728;DHT22;347;48.780;9.158;2022-07-23T09:08:12;24.00;26.50
728;DHT22;347;48.780;9.158;2022-07-23T09:10:58;24.20;26.30
728;DHT22;347;48.780;9.158;2022-07-23T09:15:57;24.60;24.30
728;DHT22;347;48.780;9.158;2022-07-23T09:18:32;24.80;23.30
728;DHT22;347;48.780;9.158;2022-07-23T09:21:36;24.80;23.90
728;DHT22;347;48.780;9.158;2022-07-23T09:24:10;25.10;22.10
728;DHT22;347;48.780;9.158;2022-07-23T09:29:24;25.00;22.10
728;DHT22;347;48.780;9.158;2022-07-23T09:34:23;25.30;22.10
728;DHT22;347;48.780;9.158;2022-07-23T09:36:50;25.40;21.40
728;DHT22;347;48.780;9.158;2022-07-23T09:39:28;25.40;21.80
728;DHT22;347;48.780;9.158;2022-07-23T09:41:54;25.40;22.30
728;DHT22;347;48.780;9.158;2022-07-23T09:44:21;25.50;22.20
728;DHT22;347;48.780;9.158;2022-07-23T09:46:49;25.50;22.20
728;DHT22;347;48.780;9.158;2022-07-23T09:49:20;25.50;22.00
728;DHT22;347;48.780;9.158;2022-07-23T09:51:55;25.60;21.30
728;DHT22;347;48.780;9.158;2022-07-23T09:56:57;26.20;20.40
728;DHT22;347;48.780;9.158;2022-07-23T09:59:25;26.60;19.70
728;DHT22;347;48.780;9.158;2022-07-23T10:01:53;26.70;19.60
728;DHT22;347;48.780;9.158;2022-07-23T10:04:22;26.80;20.40
728;DHT22;347;48.780;9.158;2022-07-23T10:06:52;26.80;19.80
728;DHT22;347;48.780;9.158;2022-07-23T10:09:27;27.00;19.40
728;DHT22;347;48.780;9.158;2022-07-23T10:11:56;27.00;19.80
728;DHT22;347;48.780;9.158;2022-07-23T10:14:30;27.00;18.70
728;DHT22;347;48.780;9.158;2022-07-23T10:16:58;27.20;18.30
728;DHT22;347;48.780;9.158;2022-07-23T10:19:24;27.20;17.60
728;DHT22;347;48.780;9.158;2022-07-23T10:21:54;27.10;17.50
728;DHT22;347;48.780;9.158;2022-07-23T10:25:06;27.20;17.60
728;DHT22;347;48.780;9.158;2022-07-23T10:38:31;27.20;17.60
728;DHT22;347;48.780;9.158;2022-07-23T10:41:11;27.50;16.30
728;DHT22;347;48.780;9.158;2022-07-23T10:43:37;27.50;16.00
728;DHT22;347;48.780;9.158;2022-07-23T10:46:25;27.50;16.30
728;DHT22;347;48.780;9.158;2022-07-23T10:49:27;27.40;15.70
728;DHT22;347;48.780;9.158;2022-07-23T10:52:16;27.50;16.00
728;DHT22;347;48.780;9.158;2022-07-23T10:54:43;27.60;16.00
728;DHT22;347;48.780;9.158;2022-07-23T10:57:13;27.50;16.10
728;DHT22;347;48.780;9.158;2022-07-23T11:02:33;27.40;16.50
728;DHT22;347;48.780;9.158;2022-07-23T11:05:04;27.40;15.80
728;DHT22;347;48.780;9.158;2022-07-23T11:07:31;27.40;16.40
728;DHT22;347;48.780;9.158;2022-07-23T11:09:57;27.30;16.90
728;DHT22;347;48.780;9.158;2022-07-23T11:14:59;27.70;16.50
728;DHT22;347;48.780;9.158;2022-07-23T11:17:26;27.60;17.10
728;DHT22;347;48.780;9.158;2022-07-23T11:25:33;27.50;17.80
728;DHT22;347;48.780;9.158;2022-07-23T11:31:17;27.30;17.70
728;DHT22;347;48.780;9.158;2022-07-23T11:33:43;27.30;17.70
728;DHT22;347;48.780;9.158;2022-07-23T11:36:09;27.50;17.50
728;DHT22;347;48.780;9.158;2022-07-23T11:38:35;27.50;17.80
728;DHT22;347;48.780;9.158;2022-07-23T11:41:03;27.30;17.90
728;DHT22;347;48.780;9.158;2022-07-23T11:43:28;27.20;18.70
728;DHT22;347;48.780;9.158;2022-07-23T11:45:58;27.10;19.10
728;DHT22;347;48.780;9.158;2022-07-23T11:48:26;27.10;19.50
728;DHT22;347;48.780;9.158;2022-07-23T11:50:54;27.10;19.30
728;DHT22;347;48.780;9.158;2022-07-23T11:53:28;27.40;18.60
728;DHT22;347;48.780;9.158;2022-07-23T11:56:02;27.50;18.10
728;DHT22;347;48.780;9.158;2022-07-23T11:58:28;27.50;17.80
728;DHT22;347;48.780;9.158;2022-07-23T12:00:55;27.90;17.50
728;DHT22;347;48.780;9.158;2022-07-23T12:03:21;27.70;17.50
728;DHT22;347;48.780;9.158;2022-07-23T12:05:46;27.50;17.80
728;DHT22;347;48.780;9.158;2022-07-23T12:08:12;27.40;17.70
728;DHT22;347;48.780;9.158;2022-07-23T12:10:47;27.30;18.40
728;DHT22;347;48.780;9.158;2022-07-23T12:13:16;27.30;18.60
728;DHT22;347;48.780;9.158;2022-07-23T12:15:46;27.20;18.70
728;DHT22;347;48.780;9.158;2022-07-23T12:18:22;27.20;18.70
728;DHT22;347;48.780;9.158;2022-07-23T12:20:51;27.10;19.10
728;DHT22;347;48.780;9.158;2022-07-23T12:23:20;27.20;18.20
728;DHT22;347;48.780;9.158;2022-07-23T12:25:48;27.30;17.70
728;DHT22;347;48.780;9.158;2022-07-23T12:30:43;27.30;17.70
728;DHT22;347;48.780;9.158;2022-07-23T12:33:14;27.20;17.80
728;DHT22;347;48.780;9.158;2022-07-23T12:35:46;27.10;17.70
728;DHT22;347;48.780;9.158;2022-07-23T12:38:17;27.10;18.10
728;DHT22;347;48.780;9.158;2022-07-23T12:40:44;27.00;18.60
728;DHT22;347;48.780;9.158;2022-07-23T12:43:19;27.00;19.10
728;DHT22;347;48.780;9.158;2022-07-23T12:45:47;27.10;18.30
728;DHT22;347;48.780;9.158;2022-07-23T12:48:39;27.50;18.30
728;DHT22;347;48.780;9.158;2022-07-23T12:53:49;27.10;19.10
728;DHT22;347;48.780;9.158;2022-07-23T12:56:17;27.10;19.20
728;DHT22;347;48.780;9.158;2022-07-23T13:01:10;27.40;18.80
728;DHT22;347;48.780;9.158;2022-07-23T13:04:11;27.40;18.80
728;DHT22;347;48.780;9.158;2022-07-23T13:09:12;27.20;19.10
728;DHT22;347;48.780;9.158;2022-07-23T13:11:38;27.20;19.10
728;DHT22;347;48.780;9.158;2022-07-23T13:14:05;27.20;18.20
728;DHT22;347;48.780;9.158;2022-07-23T13:16:32;27.10;18.40
728;DHT22;347;48.780;9.158;2022-07-23T13:18:59;27.10;18.00
728;DHT22;347;48.780;9.158;2022-07-23T13:21:29;27.10;18.00
728;DHT22;347;48.780;9.158;2022-07-23T13:23:56;27.10;18.30
728;DHT22;347;48.780;9.158;2022-07-23T13:26:21;27.10;17.50
728;DHT22;347;48.780;9.158;2022-07-23T13:28:47;27.10;17.50
728;DHT22;347;48.780;9.158;2022-07-23T13:31:13;27.10;17.50
728;DHT22;347;48.780;9.158;2022-07-23T13:33:39;27.20;17.50
728;DHT22;347;48.780;9.158;2022-07-23T13:36:05;27.20;17.30
728;DHT22;347;48.780;9.158;2022-07-23T13:38:31;27.10;17.50
728;DHT22;347;48.780;9.158;2022-07-23T13:40:57;27.20;17.60
728;DHT22;347;48.780;9.158;2022-07-23T13:43:23;27.20;17.60
728;DHT22;347;48.780;9.158;2022-07-23T13:45:50;27.50;17.80
728;DHT22;347;48.780;9.158;2022-07-23T13:48:18;27.40;17.00
728;DHT22;347;48.780;9.158;2022-07-23T13:50:44;27.50;16.30
728;DHT22;347;48.780;9.158;2022-07-23T13:53:13;27.90;16.10
728;DHT22;347;48.780;9.158;2022-07-23T13:55:43;27.70;15.80
728;DHT22;347;48.780;9.158;2022-07-23T13:58:09;27.50;16.30
728;DHT22;347;48.780;9.158;2022-07-23T14:00:38;27.40;17.10
728;DHT22;347;48.780;9.158;2022-07-23T14:03:04;27.30;17.40
728;DHT22;347;48.780;9.158;2022-07-23T14:05:29;27.30;17.60
728;DHT22;347;48.780;9.158;2022-07-23T14:07:55;27.20;17.60
728;DHT22;347;48.780;9.158;2022-07-23T14:10:22;27.30;17.90
728;DHT22;347;48.780;9.158;2022-07-23T14:12:49;27.30;17.70
728;DHT22;347;48.780;9.158;2022-07-23T14:15:16;27.30;16.90
728;DHT22;347;48.780;9.158;2022-07-23T14:17:43;27.30;16.90
728;DHT22;347;48.780;9.158;2022-07-23T14:20:11;27.90;15.80
728;DHT22;347;48.780;9.158;2022-07-23T14:22:37;27.80;15.90
728;DHT22;347;48.780;9.158;2022-07-23T14:25:04;27.60;16.20
728;DHT22;347;48.780;9.158;2022-07-23T14:27:30;27.60;16.90
728;DHT22;347;48.780;9.158;2022-07-23T14:29:56;27.60;15.80
728;DHT22;347;48.780;9.158;2022-07-23T14:32:22;27.70;15.40
728;DHT22;347;48.780;9.158;2022-07-23T14:34:48;27.60;15.10
728;DHT22;347;48.780;9.158;2022-07-23T14:37:15;27.60;15.80
728;DHT22;347;48.780;9.158;2022-07-23T14:39:42;27.70;15.60
728;DHT22;347;48.780;9.158;2022-07-23T14:42:09;27.70;15.40
728;DHT22;347;48.780;9.158;2022-07-23T14:44:35;27.70;15.50
728;DHT22;347;48.780;9.158;2022-07-23T14:47:01;27.60;15.20
728;DHT22;347;48.780;9.158;2022-07-23T14:49:28;27.70;15.30
728;DHT22;347;48.780;9.158;2022-07-23T14:51:54;27.70;13.90
728;DHT22;347;48.780;9.158;2022-07-23T14:54:20;28.20;13.30
728;DHT22;347;48.780;9.158;2022-07-23T14:56:46;28.10;13.90
728;DHT22;347;48.780;9.158;2022-07-23T14:59:12;28.00;13.80
728;DHT22;347;48.780;9.158;2022-07-23T15:01:38;27.90;13.90
728;DHT22;347;48.780;9.158;2022-07-23T15:04:05;27.80;14.20
728;DHT22;347;48.780;9.158;2022-07-23T15:06:32;27.80;14.60
728;DHT22;347;48.780;9.158;2022-07-23T15:08:58;27.70;14.60
728;DHT22;347;48.780;9.158;2022-07-23T15:11:26;27.70;14.60
728;DHT22;347;48.780;9.158;2022-07-23T15:13:52;27.70;14.60
728;DHT22;347;48.780;9.158;2022-07-23T15:16:18;27.80;13.90
728;DHT22;347;48.780;9.158;2022-07-23T15:18:43;27.90;14.50
728;DHT22;347;48.780;9.158;2022-07-23T15:21:10;27.80;15.00
728;DHT22;347;48.780;9.158;2022-07-23T15:23:36;27.80;15.00
728;DHT22;347;48.780;9.158;2022-07-23T15:26:05;27.70;14.80
728;DHT22;347;48.780;9.158;2022-07-23T15:28:30;27.90;14.80
728;DHT22;347;48.780;9.158;2022-07-23T15:30:56;27.80;15.40
728;DHT22;347;48.780;9.158;2022-07-23T15:33:22;27.80;15.60
728;DHT22;347;48.780;9.158;2022-07-23T15:35:48;27.90;15.50
728;DHT22;347;48.780;9.158;2022-07-23T15:38:14;27.80;15.80
728;DHT22;347;48.780;9.158;2022-07-23T15:40:40;27.90;15.30
728;DHT22;347;48.780;9.158;2022-07-23T15:43:05;27.90;15.50
728;DHT22;347;48.780;9.158;2022-07-23T15:45:31;27.90;15.50
728;DHT22;347;48.780;9.158;2022-07-23T15:47:57;27.80;14.70
728;DHT22;347;48.780;9.158;2022-07-23T15:50:23;27.90;14.60
728;DHT22;347;48.780;9.158;2022-07-23T15:52:49;27.80;14.90
728;DHT22;347;48.780;9.158;2022-07-23T15:55:15;27.80;15.30
728;DHT22;347;48.780;9.158;2022-07-23T15:57:41;27.80;14.90
728;DHT22;347;48.780;9.158;2022-07-23T16:00:07;27.90;15.10
728;DHT22;347;48.780;9.158;2022-07-23T16:02:34;27.80;15.40
728;DHT22;347;48.780;9.158;2022-07-23T16:05:00;27.80;15.50
728;DHT22;347;48.780;9.158;2022-07-23T16:07:29;27.70;15.90
728;DHT22;347;48.780;9.158;2022-07-23T16:10:07;27.70;15.50
728;DHT22;347;48.780;9.158;2022-07-23T16:12:35;27.70;15.80
728;DHT22;347;48.780;9.158;2022-07-23T16:15:01;27.70;15.50
728;DHT22;347;48.780;9.158;2022-07-23T16:17:31;27.60;15.90
728;DHT22;347;48.780;9.158;2022-07-23T16:19:57;27.60;16.00
728;DHT22;347;48.780;9.158;2022-07-23T16:22:26;27.60;15.80
728;DHT22;347;48.780;9.158;2022-07-23T16:24:51;27.60;15.50
728;DHT22;347;48.780;9.158;2022-07-23T16:27:17;27.60;15.20
728;DHT22;347;48.780;9.158;2022-07-23T16:30:29;27.60;15.30
728;DHT22;347;48.780;9.158;2022-07-23T16:33:06;27.50;15.70
728;DHT22;347;48.780;9.158;2022-07-23T16:35:32;27.50;15.90
728;DHT22;347;48.780;9.158;2022-07-23T16:38:21;27.50;16.20
728;DHT22;347;48.780;9.158;2022-07-23T16:40:48;27.50;16.70
728;DHT22;347;48.780;9.158;2022-07-23T16:43:31;27.50;17.00
728;DHT22;347;48.780;9.158;2022-07-23T16:45:59;27.40;17.10
728;DHT22;347;48.780;9.158;2022-07-23T16:48:27;27.40;17.40
728;DHT22;347;48.780;9.158;2022-07-23T16:50:55;27.40;17.50
728;DHT22;347;48.780;9.158;2022-07-23T16:53:21;27.30;17.70
728;DHT22;347;48.780;9.158;2022-07-23T16:55:47;27.40;17.70
728;DHT22;347;48.780;9.158;2022-07-23T16:58:16;27.30;17.50
728;DHT22;347;48.780;9.158;2022-07-23T17:00:45;27.30;17.70
728;DHT22;347;48.780;9.158;2022-07-23T17:03:13;27.30;17.70
728;DHT22;347;48.780;9.158;2022-07-23T17:05:39;27.30;17.80
728;DHT22;347;48.780;9.158;2022-07-23T17:08:05;27.20;18.10
728;DHT22;347;48.780;9.158;2022-07-23T17:10:31;27.20;18.40
728;DHT22;347;48.780;9.158;2022-07-23T17:15:56;27.20;18.40
728;DHT22;347;48.780;9.158;2022-07-23T17:18:23;27.20;18.70
728;DHT22;347;48.780;9.158;2022-07-23T17:20:49;27.20;18.90
728;DHT22;347;48.780;9.158;2022-07-23T17:23:15;27.10;19.00
728;DHT22;347;48.780;9.158;2022-07-23T17:25:41;27.10;18.90
728;DHT22;347;48.780;9.158;2022-07-23T17:28:07;27.10;18.90
728;DHT22;347;48.780;9.158;2022-07-23T17:30:33;27.10;19.20